Elk Point, Canada
Current Conditions -  °F | °C
As of 4:00 AM on Sunday 23 Nov 2014 (Local Time) from CYOD Reporting Station
Light Snow Light Snow  
Wind Chill: -10°   Ceiling: 1400
Heat Index: -10°   Visibility: 2mi
Dew Point: -11°   Wind: 3mph
Humidity: 93%   Direction: 330°NNW
Pressure: 29.74"   Gusts: NA
Location:  53.9°N, 110.9°W
Report Text: CYOD 231100Z 33003KT 2SM -SN OVC014 M10/M11 A2974 RMK ST8 /S02/SLP109
Loading
Personal Weather Stations






























Interactive Weather Map New forecast layout! Learn more

10-Day Weather Forecast

Advertisements
Track Severe Weather on mobile